Time;durP1;ratioP1;P1;durP2;ratioP2;P2;SDS_P1;SDS_P2;PMS_P1;PMS_P2;Temp;Humidity;BMP_temperature;BMP_pressure;BME280_temperature;BME280_humidity;BME280_pressure;Samples;Min_cycle;Max_cycle;Signal;HPM_P1;HPM_P2
2022/02/20 00:01:36;;;;;;;6.78;0.93;;;4.00;99.90;;;;;;5080117;28;20401;-69
2022/02/20 00:04:04;;;;;;;0.85;0.45;;;4.00;99.90;;;;;;5079404;28;20079;-69
2022/02/20 00:06:31;;;;;;;1.75;0.38;;;4.00;99.90;;;;;;5079305;28;20021;-69
2022/02/20 00:08:59;;;;;;;0.40;0.30;;;4.00;99.90;;;;;;5044012;28;20116;-69
2022/02/20 00:11:26;;;;;;;1.77;0.45;;;3.90;99.90;;;;;;5078355;28;20025;-69
2022/02/20 00:13:54;;;;;;;0.70;0.38;;;3.90;99.90;;;;;;5043963;28;20020;-69
2022/02/20 00:16:22;;;;;;;1.33;0.30;;;3.80;99.90;;;;;;5078136;28;20073;-69
2022/02/20 00:18:49;;;;;;;4.57;0.93;;;3.80;99.90;;;;;;5061117;28;20074;-69
2022/02/20 00:21:17;;;;;;;1.17;0.40;;;3.60;99.90;;;;;;5078137;28;20047;-69
2022/02/20 00:23:45;;;;;;;0.70;0.30;;;3.60;99.90;;;;;;5078137;28;20017;-69
2022/02/20 00:26:12;;;;;;;2.53;0.65;;;3.50;99.90;;;;;;5079101;28;20016;-69
2022/02/20 00:28:40;;;;;;;1.10;0.75;;;3.50;99.90;;;;;;5078874;28;20028;-69
2022/02/20 00:31:08;;;;;;;0.95;0.70;;;3.50;99.90;;;;;;5078879;28;20055;-69
2022/02/20 00:33:35;;;;;;;1.35;0.65;;;3.60;99.90;;;;;;5078699;28;20367;-69
2022/02/20 00:36:03;;;;;;;1.27;0.60;;;3.60;99.90;;;;;;5079080;28;20123;-69
2022/02/20 00:38:30;;;;;;;2.63;0.73;;;3.70;99.90;;;;;;5078734;28;20028;-69
2022/02/20 00:40:57;;;;;;;3.85;0.90;;;3.80;99.90;;;;;;5078971;28;20028;-69
2022/02/20 00:43:25;;;;;;;3.00;1.10;;;3.90;99.90;;;;;;5077716;28;20042;-69
2022/02/20 00:45:52;;;;;;;3.90;0.88;;;4.00;99.90;;;;;;5078099;28;20020;-69
2022/02/20 00:48:21;;;;;;;3.25;1.52;;;4.10;99.90;;;;;;5078017;28;20028;-69
2022/02/20 00:50:49;;;;;;;2.33;1.42;;;4.20;99.90;;;;;;5077861;28;20031;-69
2022/02/20 00:53:17;;;;;;;2.92;1.25;;;4.30;99.90;;;;;;5077462;28;20417;-69
2022/02/20 00:55:45;;;;;;;3.22;1.30;;;4.40;99.90;;;;;;5077472;28;20074;-69
2022/02/20 00:58:12;;;;;;;4.38;1.90;;;4.50;99.90;;;;;;5077375;28;20457;-69
2022/02/20 01:00:39;;;;;;;3.80;2.15;;;4.50;99.90;;;;;;5077642;28;20112;-69
2022/02/20 01:03:08;;;;;;;7.00;1.58;;;4.60;99.90;;;;;;5078206;28;20328;-69
2022/02/20 01:05:35;;;;;;;4.43;1.80;;;4.60;99.90;;;;;;5078245;28;20028;-69
2022/02/20 01:08:03;;;;;;;3.05;1.70;;;4.70;99.90;;;;;;5078031;28;20032;-69
2022/02/20 01:10:30;;;;;;;5.60;3.47;;;4.70;99.90;;;;;;5078602;28;20024;-69
2022/02/20 01:13:00;;;;;;;3.72;2.17;;;4.70;99.90;;;;;;5077956;28;20024;-69
2022/02/20 01:15:28;;;;;;;4.45;2.03;;;4.70;99.90;;;;;;5078162;28;20024;-69
2022/02/20 01:17:56;;;;;;;4.00;1.92;;;4.80;99.90;;;;;;5077949;28;20472;-69
2022/02/20 01:20:23;;;;;;;4.05;2.10;;;4.80;99.90;;;;;;5076828;28;20057;-69
2022/02/20 01:22:52;;;;;;;4.72;2.75;;;4.70;99.90;;;;;;5076710;28;20021;-69
2022/02/20 01:25:20;;;;;;;5.32;2.30;;;4.80;99.90;;;;;;5060265;28;20027;-69
2022/02/20 01:27:47;;;;;;;4.55;2.97;;;4.80;99.90;;;;;;5076702;28;20048;-69
2022/02/20 01:30:14;;;;;;;5.78;2.78;;;4.80;99.90;;;;;;5077065;28;20031;-69
2022/02/20 01:32:42;;;;;;;4.40;2.90;;;4.80;99.90;;;;;;5076698;28;20028;-69
2022/02/20 01:35:10;;;;;;;4.75;2.72;;;4.80;99.90;;;;;;5076762;28;20108;-69
2022/02/20 01:37:38;;;;;;;5.45;1.80;;;4.80;99.90;;;;;;5076933;28;20428;-69
2022/02/20 01:40:06;;;;;;;5.22;2.35;;;4.90;99.90;;;;;;5077285;28;20429;-69
2022/02/20 01:42:34;;;;;;;4.35;2.83;;;4.90;99.90;;;;;;5077646;28;20025;-69
2022/02/20 01:45:01;;;;;;;8.23;2.80;;;4.90;99.90;;;;;;5078116;28;20059;-69
2022/02/20 01:47:29;;;;;;;3.83;1.67;;;5.00;99.90;;;;;;5060131;28;20336;-69
2022/02/20 01:49:56;;;;;;;3.58;2.42;;;5.00;99.90;;;;;;5077436;28;20032;-69
2022/02/20 01:52:24;;;;;;;11.25;2.75;;;5.00;99.90;;;;;;5060405;28;20016;-69
2022/02/20 01:54:51;;;;;;;1.92;1.13;;;5.00;99.90;;;;;;5078011;28;20040;-69
2022/02/20 01:57:20;;;;;;;6.72;2.25;;;5.00;99.90;;;;;;5059278;28;20355;-69
2022/02/20 01:59:47;;;;;;;10.50;2.88;;;5.00;99.90;;;;;;5077069;28;20123;-69
2022/02/20 02:02:19;;;;;;;9.80;2.05;;;5.00;99.90;;;;;;5076485;28;20025;-69
2022/02/20 02:04:48;;;;;;;6.85;2.05;;;5.10;99.90;;;;;;5076941;28;20111;-69
2022/02/20 02:07:15;;;;;;;6.05;1.88;;;5.00;99.90;;;;;;5076937;28;20020;-69
2022/02/20 02:09:44;;;;;;;5.35;2.08;;;5.00;99.90;;;;;;5076327;28;20363;-69
2022/02/20 02:12:12;;;;;;;7.18;2.05;;;5.10;99.90;;;;;;5076373;28;20027;-69
2022/02/20 02:15:00;;;;;;;4.35;1.88;;;5.10;99.90;;;;;;5058741;28;20095;-69
2022/02/20 02:17:27;;;;;;;5.32;1.85;;;5.10;99.90;;;;;;5076933;28;20028;-69
2022/02/20 02:19:55;;;;;;;4.53;1.52;;;5.10;99.90;;;;;;5059969;28;20042;-69
2022/02/20 02:22:27;;;;;;;7.47;1.95;;;5.10;99.90;;;;;;5077127;28;20033;-69
2022/02/20 02:24:56;;;;;;;5.22;1.60;;;5.10;99.90;;;;;;5077713;28;20029;-69
2022/02/20 02:27:24;;;;;;;4.43;1.65;;;5.10;99.90;;;;;;5077532;28;20313;-69
2022/02/20 02:29:52;;;;;;;12.27;3.63;;;5.10;99.90;;;;;;5077379;28;20012;-69
2022/02/20 02:32:21;;;;;;;6.55;2.00;;;5.10;99.90;;;;;;5077086;28;20048;-69
2022/02/20 02:34:50;;;;;;;8.15;2.13;;;5.10;99.90;;;;;;5076385;28;20029;-69
2022/02/20 02:37:17;;;;;;;9.02;1.90;;;5.10;99.90;;;;;;5059096;28;20048;-69
2022/02/20 02:39:44;;;;;;;5.10;2.47;;;5.10;99.90;;;;;;5076006;28;20325;-69
2022/02/20 02:42:12;;;;;;;4.57;2.03;;;5.00;99.90;;;;;;5076082;28;20040;-69
2022/02/20 02:44:40;;;;;;;9.52;1.85;;;5.00;99.90;;;;;;5076052;28;20134;-69
2022/02/20 02:47:11;;;;;;;10.27;1.83;;;4.90;99.90;;;;;;5058889;28;20098;-69
2022/02/20 02:49:38;;;;;;;4.20;1.90;;;4.90;99.90;;;;;;5059142;28;20029;-69
2022/02/20 02:52:07;;;;;;;6.00;1.80;;;4.80;99.90;;;;;;5076114;28;20025;-69
2022/02/20 02:54:34;;;;;;;7.43;2.30;;;4.80;99.90;;;;;;5077393;28;20024;-69
2022/02/20 02:57:02;;;;;;;8.10;2.08;;;4.80;99.90;;;;;;5076940;28;20031;-69
2022/02/20 02:59:30;;;;;;;7.30;2.13;;;4.80;99.90;;;;;;5077024;28;20321;-69
2022/02/20 03:02:03;;;;;;;6.50;2.10;;;4.70;99.90;;;;;;5059521;28;20029;-69
2022/02/20 03:04:32;;;;;;;8.43;1.90;;;4.70;99.90;;;;;;5077562;28;20016;-69
2022/02/20 03:06:59;;;;;;;5.72;2.03;;;4.70;99.90;;;;;;5076715;28;20032;-69
2022/02/20 03:09:27;;;;;;;6.22;2.53;;;4.80;99.90;;;;;;5075823;28;20066;-69
2022/02/20 03:11:54;;;;;;;5.85;2.20;;;4.70;99.90;;;;;;5075905;28;20028;-69
2022/02/20 03:14:23;;;;;;;7.43;1.85;;;4.70;99.90;;;;;;5075688;28;20017;-69
2022/02/20 03:16:50;;;;;;;4.15;1.55;;;4.80;99.90;;;;;;5076001;28;20025;-69
2022/02/20 03:19:18;;;;;;;2.75;1.42;;;4.80;99.90;;;;;;5061653;28;20024;-69
2022/02/20 03:21:45;;;;;;;6.07;1.63;;;4.80;99.90;;;;;;5058164;28;20048;-69
2022/02/20 03:24:12;;;;;;;3.70;1.13;;;4.80;99.90;;;;;;5058151;28;20036;-69
2022/02/20 03:26:40;;;;;;;4.95;1.52;;;4.80;99.90;;;;;;5058611;28;20321;-69
2022/02/20 03:29:07;;;;;;;7.22;1.48;;;4.80;99.90;;;;;;5060622;28;20049;-69
2022/02/20 03:31:35;;;;;;;5.93;1.80;;;4.80;99.90;;;;;;5060758;28;20024;-69
2022/02/20 03:34:02;;;;;;;5.32;1.23;;;4.80;99.90;;;;;;5060508;28;20387;-69
2022/02/20 03:36:32;;;;;;;12.68;3.00;;;4.80;99.90;;;;;;5059961;28;20112;-69
2022/02/20 03:38:59;;;;;;;6.70;1.55;;;4.80;99.90;;;;;;5059838;28;20021;-69
2022/02/20 03:41:26;;;;;;;7.68;1.70;;;4.80;99.90;;;;;;5058950;28;20440;-69
2022/02/20 03:43:54;;;;;;;4.68;1.50;;;4.80;99.90;;;;;;5059458;28;20419;-69
2022/02/20 03:46:21;;;;;;;7.70;1.67;;;4.80;99.90;;;;;;5058838;28;20103;-69
2022/02/20 03:48:49;;;;;;;7.47;1.55;;;4.80;99.90;;;;;;5058746;28;20032;-69
2022/02/20 03:51:17;;;;;;;12.75;1.90;;;4.80;99.90;;;;;;5058873;28;20024;-69
2022/02/20 03:53:44;;;;;;;6.25;1.67;;;4.80;99.90;;;;;;5058031;28;20025;-69
2022/02/20 03:56:11;;;;;;;7.88;1.73;;;4.80;99.90;;;;;;5058598;28;20021;-69
2022/02/20 03:58:38;;;;;;;1.92;0.80;;;4.80;99.90;;;;;;5058879;28;20329;-69
2022/02/20 04:01:06;;;;;;;3.10;1.67;;;4.80;99.90;;;;;;5059052;28;20025;-69
2022/02/20 04:03:33;;;;;;;9.32;2.15;;;4.80;99.90;;;;;;5059588;28;20053;-69
2022/02/20 04:06:01;;;;;;;8.85;2.42;;;4.80;99.90;;;;;;5058382;28;20035;-69
2022/02/20 04:08:28;;;;;;;3.50;1.67;;;4.80;99.90;;;;;;5058594;28;20025;-69
2022/02/20 04:10:56;;;;;;;9.75;1.65;;;4.80;99.90;;;;;;5059586;28;20021;-69
2022/02/20 04:13:23;;;;;;;9.65;3.10;;;4.80;99.90;;;;;;5058190;28;20023;-69
2022/02/20 04:15:50;;;;;;;4.97;1.55;;;4.80;99.90;;;;;;5059361;28;20014;-69
2022/02/20 04:18:18;;;;;;;12.07;2.13;;;4.80;99.90;;;;;;5059477;28;20086;-69
2022/02/20 04:20:45;;;;;;;6.90;1.77;;;4.80;99.90;;;;;;5056961;28;20113;-69
2022/02/20 04:23:12;;;;;;;5.43;2.63;;;4.70;99.90;;;;;;5058671;28;20038;-69
2022/02/20 04:25:39;;;;;;;7.55;2.10;;;4.70;99.90;;;;;;5057228;28;20329;-69
2022/02/20 04:28:07;;;;;;;4.10;1.70;;;4.70;99.90;;;;;;5058394;28;20090;-69
2022/02/20 04:30:34;;;;;;;6.97;2.33;;;4.70;99.90;;;;;;5055980;28;20017;-69
2022/02/20 04:33:02;;;;;;;5.35;1.52;;;4.70;99.90;;;;;;5058464;28;20433;-69
2022/02/20 04:35:31;;;;;;;12.25;2.00;;;4.70;99.90;;;;;;5058097;28;20421;-69
2022/02/20 04:37:59;;;;;;;6.65;1.90;;;4.60;99.90;;;;;;5058653;28;20313;-69
2022/02/20 04:40:26;;;;;;;4.50;1.73;;;4.60;99.90;;;;;;5057977;28;20294;-69
2022/02/20 04:42:53;;;;;;;3.65;1.90;;;4.60;99.90;;;;;;5059215;28;20032;-69
2022/02/20 04:45:21;;;;;;;5.22;1.98;;;4.60;99.90;;;;;;5057660;28;20029;-69
2022/02/20 04:47:48;;;;;;;7.80;2.53;;;4.60;99.90;;;;;;5057460;28;20024;-69
2022/02/20 04:50:16;;;;;;;6.50;2.78;;;4.60;99.90;;;;;;5058465;28;20104;-69
2022/02/20 04:52:43;;;;;;;8.77;2.10;;;4.60;99.90;;;;;;5057585;28;20093;-69
2022/02/20 04:55:10;;;;;;;3.72;2.10;;;4.60;99.90;;;;;;5058542;28;20072;-69
2022/02/20 04:57:42;;;;;;;8.95;2.38;;;4.60;99.90;;;;;;5057259;28;20021;-69
2022/02/20 05:00:11;;;;;;;7.75;2.38;;;4.60;99.90;;;;;;5057287;28;20025;-69
2022/02/20 05:02:38;;;;;;;5.60;2.13;;;4.60;99.90;;;;;;5057399;28;20021;-69
2022/02/20 05:05:07;;;;;;;4.90;2.08;;;4.50;99.90;;;;;;5057250;28;20032;-69
2022/02/20 05:07:34;;;;;;;4.97;1.98;;;4.50;99.90;;;;;;5057382;28;20095;-69
2022/02/20 05:10:02;;;;;;;7.75;2.47;;;4.50;99.90;;;;;;5057129;28;20025;-69
2022/02/20 05:12:30;;;;;;;6.75;3.13;;;4.50;99.90;;;;;;5056517;28;20017;-69
2022/02/20 05:14:57;;;;;;;5.85;2.85;;;4.50;99.90;;;;;;5058064;28;20406;-69
2022/02/20 05:17:24;;;;;;;7.35;2.67;;;4.40;99.90;;;;;;5057310;28;20433;-69
2022/02/20 05:19:50;;;;;;;5.93;2.58;;;4.40;99.90;;;;;;5058549;28;20103;-69
2022/02/20 05:22:18;;;;;;;9.68;3.53;;;4.40;99.90;;;;;;5077973;28;20036;-69
2022/02/20 05:24:45;;;;;;;5.95;2.10;;;4.30;99.90;;;;;;5077951;28;20028;-69
2022/02/20 05:27:13;;;;;;;7.22;2.47;;;4.30;99.90;;;;;;5078062;28;20411;-69
2022/02/20 05:29:40;;;;;;;6.85;2.47;;;4.30;99.90;;;;;;5060184;28;20324;-69
2022/02/20 05:32:08;;;;;;;13.38;4.30;;;4.20;99.90;;;;;;5076978;28;20033;-69
2022/02/20 05:34:36;;;;;;;5.15;2.75;;;4.20;99.90;;;;;;5059141;28;20021;-69
2022/02/20 05:37:03;;;;;;;4.45;2.33;;;4.20;99.90;;;;;;5076759;28;20028;-69
2022/02/20 05:39:31;;;;;;;7.18;2.95;;;4.10;99.90;;;;;;5076694;28;20025;-69
2022/02/20 05:41:58;;;;;;;5.95;2.70;;;4.10;99.90;;;;;;5076641;28;20023;-69
2022/02/20 05:44:26;;;;;;;5.38;2.45;;;4.10;99.90;;;;;;5076626;28;20020;-69
2022/02/20 05:46:54;;;;;;;6.10;2.58;;;4.10;99.90;;;;;;5058926;28;20024;-69
2022/02/20 05:52:28;;;;;;;5.38;1.95;;;4.00;99.90;;;;;;5065429;28;20485;-69
2022/02/20 05:54:56;;;;;;;4.72;2.50;;;4.00;99.90;;;;;;5077520;28;20023;-69
2022/02/20 05:57:23;;;;;;;4.70;2.00;;;4.00;99.90;;;;;;5078042;28;20020;-69
2022/02/20 05:59:51;;;;;;;4.78;2.38;;;4.00;99.90;;;;;;5077487;28;20100;-69
2022/02/20 06:02:18;;;;;;;4.18;2.28;;;3.90;99.90;;;;;;5060510;28;20024;-69
2022/02/20 06:04:45;;;;;;;3.58;1.60;;;3.90;99.90;;;;;;5077648;28;20074;-69
2022/02/20 06:07:13;;;;;;;4.22;1.70;;;3.90;99.90;;;;;;5076997;28;20103;-69
2022/02/20 06:09:40;;;;;;;5.55;1.73;;;3.90;99.90;;;;;;5076945;28;20028;-69
2022/02/20 06:12:08;;;;;;;5.47;2.50;;;3.90;99.90;;;;;;5076586;28;20021;-69
2022/02/20 06:14:35;;;;;;;3.40;2.00;;;3.80;99.90;;;;;;5076920;28;20362;-69
2022/02/20 06:17:03;;;;;;;5.60;2.35;;;3.90;99.90;;;;;;5058755;28;20027;-69
2022/02/20 06:19:30;;;;;;;6.25;2.20;;;3.80;99.90;;;;;;5076273;28;20026;-69
2022/02/20 06:21:58;;;;;;;2.97;1.55;;;3.80;99.90;;;;;;5076392;28;20439;-69
2022/02/20 06:24:25;;;;;;;3.15;1.58;;;3.80;99.90;;;;;;5076188;28;20054;-69
2022/02/20 06:26:53;;;;;;;4.60;2.10;;;3.80;99.90;;;;;;5076630;28;20029;-69
2022/02/20 06:29:20;;;;;;;3.40;1.75;;;3.80;99.90;;;;;;5077183;28;20017;-69
2022/02/20 06:31:48;;;;;;;4.20;1.77;;;3.80;99.90;;;;;;5077386;28;20016;-69
2022/02/20 06:34:15;;;;;;;3.90;1.80;;;3.80;99.90;;;;;;5077089;28;20016;-70
2022/02/20 06:36:42;;;;;;;5.07;2.13;;;3.80;99.90;;;;;;5076772;28;20043;-69
2022/02/20 06:39:11;;;;;;;13.38;2.38;;;3.80;99.90;;;;;;5077005;28;20017;-69
2022/02/20 06:41:38;;;;;;;2.80;1.40;;;3.80;99.90;;;;;;5077530;28;20025;-69
2022/02/20 06:44:06;;;;;;;6.38;1.50;;;3.80;99.90;;;;;;5076149;28;20024;-69
2022/02/20 06:46:34;;;;;;;7.15;2.60;;;3.80;99.90;;;;;;5076101;28;20104;-69
2022/02/20 06:49:02;;;;;;;5.03;1.63;;;3.80;99.90;;;;;;5076564;28;20090;-69
2022/02/20 06:51:31;;;;;;;3.85;2.17;;;3.80;99.90;;;;;;5076253;28;20428;-69
2022/02/20 06:53:58;;;;;;;4.63;1.85;;;3.80;99.90;;;;;;5061730;28;20436;-70
2022/02/20 06:56:26;;;;;;;4.70;2.15;;;3.80;99.90;;;;;;5062272;28;20108;-69
2022/02/20 06:58:53;;;;;;;8.77;2.88;;;3.80;99.90;;;;;;5080175;28;20024;-70
2022/02/20 07:01:20;;;;;;;7.00;3.15;;;3.90;99.90;;;;;;5062070;28;20035;-69
2022/02/20 07:03:48;;;;;;;7.47;3.58;;;3.90;99.90;;;;;;5080581;28;20436;-74
2022/02/20 07:06:15;;;;;;;8.88;3.50;;;3.90;99.90;;;;;;5081210;28;20055;-75
2022/02/20 07:08:42;;;;;;;8.25;4.75;;;3.90;99.90;;;;;;5080409;28;20024;-74
2022/02/20 07:11:09;;;;;;;6.80;4.10;;;4.00;99.90;;;;;;5080979;28;20416;-74
2022/02/20 07:13:37;;;;;;;7.30;4.30;;;4.00;99.90;;;;;;5080984;28;20029;-74
2022/02/20 07:16:05;;;;;;;6.90;3.88;;;4.00;99.90;;;;;;5080586;28;20380;-72
2022/02/20 07:18:32;;;;;;;11.80;4.07;;;4.00;99.90;;;;;;5080112;28;20056;-74
2022/02/20 07:20:59;;;;;;;8.43;4.28;;;4.10;99.90;;;;;;5061610;28;20071;-75
2022/02/20 07:23:27;;;;;;;11.70;5.78;;;4.10;99.90;;;;;;5079203;28;20025;-76
2022/02/20 07:25:56;;;;;;;9.82;4.72;;;4.20;99.90;;;;;;5080304;28;20056;-76
2022/02/20 07:28:23;;;;;;;11.77;5.25;;;4.20;99.90;;;;;;5079120;28;20090;-76
2022/02/20 07:30:51;;;;;;;6.63;4.38;;;4.20;99.90;;;;;;5079761;28;20016;-76
2022/02/20 07:33:18;;;;;;;12.15;4.75;;;4.20;99.90;;;;;;5079180;28;20029;-77
2022/02/20 07:35:45;;;;;;;18.08;5.32;;;4.20;99.90;;;;;;5077088;28;20079;-77
2022/02/20 07:38:12;;;;;;;8.75;4.47;;;4.20;99.90;;;;;;5079659;28;20020;-75
2022/02/20 07:40:40;;;;;;;10.45;4.78;;;4.30;99.90;;;;;;5080228;28;20024;-82
2022/02/20 07:43:07;;;;;;;11.27;4.85;;;4.30;99.90;;;;;;5057369;28;20042;-76
2022/02/20 07:45:35;;;;;;;7.22;4.43;;;4.30;99.90;;;;;;5079835;28;20029;-76
2022/02/20 07:48:03;;;;;;;9.88;3.20;;;4.30;99.90;;;;;;5061905;28;20039;-76
2022/02/20 07:50:35;;;;;;;9.65;4.72;;;4.20;99.90;;;;;;5062046;28;20020;-76
2022/02/20 07:53:04;;;;;;;9.50;3.92;;;4.30;99.90;;;;;;5079688;28;20107;-76
2022/02/20 07:55:32;;;;;;;11.93;3.78;;;4.30;99.90;;;;;;5079996;28;20407;-77
2022/02/20 07:58:05;;;;;;;7.38;4.13;;;4.30;99.90;;;;;;5078445;28;20339;-78
2022/02/20 08:00:33;;;;;;;11.57;4.40;;;4.30;99.90;;;;;;5061153;28;20021;-76
2022/02/20 08:03:02;;;;;;;12.35;4.90;;;4.30;99.90;;;;;;5078549;28;20106;-75
2022/02/20 08:05:30;;;;;;;12.60;5.45;;;4.40;99.90;;;;;;5078504;28;20024;-78
2022/02/20 08:07:57;;;;;;;7.78;3.83;;;4.40;99.90;;;;;;5078439;28;20020;-77
2022/02/20 08:10:24;;;;;;;14.10;4.43;;;4.40;99.90;;;;;;5078685;28;20027;-76
2022/02/20 08:12:52;;;;;;;10.68;3.50;;;4.40;99.90;;;;;;5078370;28;20025;-75
2022/02/20 08:15:19;;;;;;;12.25;4.93;;;4.50;99.90;;;;;;5079383;28;20107;-70
2022/02/20 08:17:48;;;;;;;7.45;2.17;;;4.40;99.90;;;;;;5079471;28;20025;-70
2022/02/20 08:20:17;;;;;;;9.25;4.20;;;4.40;99.90;;;;;;5061230;28;20037;-71
2022/02/20 08:22:45;;;;;;;10.43;4.88;;;4.40;99.90;;;;;;5079115;28;20032;-71
2022/02/20 08:25:12;;;;;;;10.90;4.57;;;4.40;99.90;;;;;;5061699;28;20324;-71
2022/02/20 08:27:40;;;;;;;10.23;3.78;;;4.40;99.90;;;;;;5078990;28;20508;-69
2022/02/20 08:30:12;;;;;;;8.52;2.53;;;4.40;99.90;;;;;;5079514;28;20025;-69
2022/02/20 08:32:40;;;;;;;15.85;4.97;;;4.40;99.90;;;;;;5078737;28;20021;-71
2022/02/20 08:35:09;;;;;;;10.93;4.50;;;4.30;99.90;;;;;;5077844;28;20029;-70
2022/02/20 08:37:40;;;;;;;9.80;3.80;;;4.30;99.90;;;;;;5060090;28;20368;-70
2022/02/20 08:40:08;;;;;;;9.25;3.80;;;4.30;99.90;;;;;;5078381;28;20100;-71
2022/02/20 08:42:35;;;;;;;13.98;2.90;;;4.30;99.90;;;;;;5078003;28;20150;-71
2022/02/20 08:45:04;;;;;;;9.02;3.58;;;4.30;99.90;;;;;;5059968;28;20487;-71
2022/02/20 08:47:31;;;;;;;6.10;3.00;;;4.30;99.90;;;;;;5077469;28;20071;-71
2022/02/20 08:50:00;;;;;;;9.80;3.63;;;4.40;99.90;;;;;;5059830;28;20024;-71
2022/02/20 08:52:28;;;;;;;11.27;3.30;;;4.40;99.90;;;;;;5077973;28;20020;-70
2022/02/20 08:54:55;;;;;;;6.88;2.75;;;4.40;99.90;;;;;;5078487;28;20012;-70
2022/02/20 08:57:23;;;;;;;7.20;2.60;;;4.50;99.90;;;;;;5078975;28;20412;-71
2022/02/20 08:59:51;;;;;;;6.15;4.18;;;4.50;99.90;;;;;;5078890;28;20079;-71
2022/02/20 09:02:18;;;;;;;8.93;3.25;;;4.50;99.90;;;;;;5079002;28;20028;-71
2022/02/20 09:04:46;;;;;;;3.60;2.25;;;4.60;99.90;;;;;;5077189;28;20029;-70
2022/02/20 09:07:13;;;;;;;4.32;2.22;;;4.60;99.90;;;;;;5060744;28;20024;-70
2022/02/20 09:09:41;;;;;;;11.82;4.22;;;4.70;99.90;;;;;;5078134;28;20024;-70
2022/02/20 09:12:08;;;;;;;5.85;2.25;;;4.70;99.90;;;;;;5077404;28;20088;-70
2022/02/20 09:14:36;;;;;;;11.65;3.85;;;4.80;99.90;;;;;;5076916;28;20016;-70
2022/02/20 09:17:04;;;;;;;8.70;2.92;;;4.80;99.90;;;;;;5076843;28;20020;-71
2022/02/20 09:19:31;;;;;;;9.80;2.65;;;4.90;99.90;;;;;;5059326;28;20036;-70
2022/02/20 09:21:59;;;;;;;5.38;2.47;;;4.90;99.90;;;;;;5076836;28;20065;-70
2022/02/20 09:24:26;;;;;;;6.93;3.00;;;4.90;99.90;;;;;;5077000;28;20028;-71
2022/02/20 09:26:53;;;;;;;10.02;2.22;;;4.90;99.90;;;;;;5077479;28;20432;-71
2022/02/20 09:29:21;;;;;;;7.55;2.95;;;5.00;99.90;;;;;;5077762;28;20032;-70
2022/02/20 09:31:48;;;;;;;9.30;2.45;;;5.00;99.90;;;;;;5043492;28;20428;-70
2022/02/20 09:34:15;;;;;;;9.70;2.67;;;5.00;99.90;;;;;;5078323;28;20020;-70
2022/02/20 09:36:43;;;;;;;5.53;1.70;;;5.00;99.90;;;;;;5060968;28;20336;-70
2022/02/20 09:39:10;;;;;;;5.30;1.85;;;5.10;99.90;;;;;;5059909;28;20021;-72
2022/02/20 09:41:37;;;;;;;5.07;2.13;;;5.10;99.90;;;;;;5060406;28;20020;-74
2022/02/20 09:44:06;;;;;;;4.00;1.42;;;5.10;99.90;;;;;;5077739;28;20333;-73
2022/02/20 09:46:37;;;;;;;6.40;3.28;;;5.20;99.90;;;;;;5076830;28;20321;-73
2022/02/20 09:49:05;;;;;;;7.80;2.20;;;5.30;99.90;;;;;;5077159;28;20056;-71
2022/02/20 09:51:33;;;;;;;10.07;2.42;;;5.30;99.90;;;;;;5076619;28;20051;-73
2022/02/20 09:54:01;;;;;;;4.20;1.42;;;5.40;99.90;;;;;;5077063;28;20017;-76
2022/02/20 09:56:29;;;;;;;4.18;1.50;;;5.50;99.90;;;;;;5076749;28;20028;-72
2022/02/20 09:58:56;;;;;;;3.58;1.52;;;5.60;99.90;;;;;;5058761;28;20102;-72
2022/02/20 10:01:23;;;;;;;2.78;1.20;;;5.60;99.90;;;;;;5077118;28;20025;-72
2022/02/20 10:03:51;;;;;;;2.58;1.27;;;5.70;99.90;;;;;;5077192;28;20027;-72
2022/02/20 10:06:21;;;;;;;6.85;1.17;;;5.80;99.90;;;;;;5059752;28;20033;-73
2022/02/20 10:08:58;;;;;;;2.85;0.70;;;6.00;99.90;;;;;;5059458;28;20029;-73
2022/02/20 10:11:31;;;;;;;2.42;0.65;;;6.10;99.90;;;;;;5077326;28;20025;-74
2022/02/20 10:14:18;;;;;;;2.10;0.57;;;6.20;99.90;;;;;;5077555;28;20297;-73
2022/02/20 10:16:45;;;;;;;3.78;0.65;;;6.30;99.90;;;;;;5077552;28;20090;-73
2022/02/20 10:19:13;;;;;;;4.00;0.70;;;6.40;99.90;;;;;;5077575;28;20048;-74
2022/02/20 10:21:46;;;;;;;1.65;0.50;;;6.50;99.90;;;;;;5076125;28;20432;-75
2022/02/20 10:24:14;;;;;;;4.85;0.80;;;6.60;99.90;;;;;;5076379;28;20025;-74
2022/02/20 10:26:49;;;;;;;2.63;0.90;;;6.70;99.90;;;;;;5077883;28;20020;-75
2022/02/20 10:29:21;;;;;;;3.90;0.45;;;6.70;99.90;;;;;;5080376;28;20017;-78
2022/02/20 10:31:50;;;;;;;0.77;0.40;;;6.70;99.90;;;;;;5080479;28;20020;-78
2022/02/20 10:34:26;;;;;;;1.63;0.40;;;6.80;99.90;;;;;;5080390;28;20024;-77
2022/02/20 10:36:58;;;;;;;2.50;0.98;;;6.80;99.90;;;;;;5080617;28;20119;-77
2022/02/20 10:39:32;;;;;;;1.08;0.40;;;6.90;99.90;;;;;;5081139;28;20029;-76
2022/02/20 10:42:13;;;;;;;3.08;0.45;;;6.90;99.90;;;;;;5081184;28;20031;-79
2022/02/20 10:44:56;;;;;;;1.63;0.38;;;6.90;99.90;;;;;;5081375;28;20027;-78
2022/02/20 10:47:24;;;;;;;1.70;0.63;;;6.90;99.90;;;;;;5081424;28;20024;-78
2022/02/20 10:49:53;;;;;;;2.25;0.50;;;7.00;99.90;;;;;;5081093;28;20069;-81
2022/02/20 10:52:25;;;;;;;2.22;0.35;;;7.00;99.90;;;;;;5081227;28;20013;-77
2022/02/20 10:55:11;;;;;;;5.57;0.57;;;7.10;99.90;;;;;;5063113;28;20023;-75
2022/02/20 10:57:44;;;;;;;2.88;0.28;;;7.10;99.90;;;;;;5080158;28;20481;-75
2022/02/20 11:00:14;;;;;;;3.45;0.40;;;7.20;99.90;;;;;;5080333;28;20040;-73
2022/02/20 11:02:43;;;;;;;3.55;0.93;;;7.20;99.90;;;;;;5080071;28;20294;-75
2022/02/20 11:05:14;;;;;;;1.35;0.50;;;7.20;99.90;;;;;;5079733;28;20082;-76
2022/02/20 11:07:41;;;;;;;3.58;0.40;;;7.20;99.90;;;;;;5079896;28;20424;-73
2022/02/20 11:10:11;;;;;;;1.55;0.45;;;7.30;99.90;;;;;;5079599;28;20431;-74
2022/02/20 11:12:39;;;;;;;1.13;0.50;;;7.40;99.90;;;;;;5080239;28;20028;-74
2022/02/20 11:15:08;;;;;;;2.72;0.60;;;7.40;99.90;;;;;;5079722;28;20025;-75
2022/02/20 11:17:36;;;;;;;0.70;0.28;;;7.50;99.90;;;;;;5080812;28;20032;-73
2022/02/20 11:20:05;;;;;;;1.63;0.70;;;7.60;99.90;;;;;;5080132;28;20025;-71
2022/02/20 11:22:38;;;;;;;1.25;0.40;;;7.60;99.90;;;;;;5080251;28;20440;-71
2022/02/20 11:25:10;;;;;;;0.85;0.43;;;7.70;99.90;;;;;;5080481;28;20024;-71
2022/02/20 11:27:43;;;;;;;1.05;0.60;;;7.70;99.90;;;;;;5062358;28;20459;-71
2022/02/20 11:30:12;;;;;;;1.20;0.40;;;7.80;99.90;;;;;;5062629;28;20028;-71
2022/02/20 11:32:41;;;;;;;1.48;0.55;;;7.80;99.90;;;;;;5079751;28;20016;-71
2022/02/20 11:35:13;;;;;;;0.77;0.47;;;7.90;99.90;;;;;;5079365;28;20024;-71
2022/02/20 11:37:51;;;;;;;0.98;0.55;;;7.90;99.90;;;;;;5079413;28;20108;-71
2022/02/20 11:40:20;;;;;;;0.82;0.50;;;7.90;99.90;;;;;;5079497;28;20024;-70
2022/02/20 11:43:00;;;;;;;2.90;1.00;;;7.90;99.90;;;;;;5078895;28;20025;-71
2022/02/20 11:45:32;;;;;;;1.70;0.75;;;8.00;99.90;;;;;;5079856;28;20029;-70
2022/02/20 11:48:07;;;;;;;2.22;1.02;;;8.10;99.90;;;;;;5078752;28;20111;-72
2022/02/20 11:50:36;;;;;;;4.90;1.17;;;8.10;99.90;;;;;;5079388;28;20436;-74
2022/02/20 11:53:11;;;;;;;3.97;1.35;;;8.10;99.90;;;;;;5080107;28;20734;-70
2022/02/20 11:55:44;;;;;;;3.28;1.00;;;8.20;99.90;;;;;;5080351;28;20107;-70
2022/02/20 11:58:16;;;;;;;2.00;0.95;;;8.20;99.90;;;;;;5079576;28;20031;-70
2022/02/20 12:00:54;;;;;;;9.35;1.45;;;8.20;99.90;;;;;;5080400;28;20027;-69
2022/02/20 12:03:23;;;;;;;3.33;1.30;;;8.30;99.90;;;;;;5079996;28;20021;-71
2022/02/20 12:06:08;;;;;;;3.22;1.77;;;8.30;99.90;;;;;;5079958;28;20043;-73
2022/02/20 12:08:40;;;;;;;4.30;1.47;;;8.30;99.90;;;;;;5078942;28;20021;-71
2022/02/20 12:11:19;;;;;;;6.40;1.60;;;8.30;99.90;;;;;;5079057;28;20096;-70
2022/02/20 12:13:54;;;;;;;3.22;1.23;;;8.40;99.90;;;;;;5078301;28;20047;-69
2022/02/20 12:16:26;;;;;;;2.92;1.35;;;8.40;99.90;;;;;;5079053;28;20073;-69
2022/02/20 12:19:10;;;;;;;7.28;2.78;;;8.40;99.90;;;;;;5078839;28;20024;-70
2022/02/20 12:22:07;;;;;;;5.45;1.65;;;8.50;99.90;;;;;;5078262;28;20048;-70
2022/02/20 12:24:48;;;;;;;8.10;1.95;;;8.50;99.90;;;;;;5078552;28;20025;-71
2022/02/20 12:27:22;;;;;;;6.53;1.50;;;8.50;99.90;;;;;;5079154;28;20028;-71
2022/02/20 12:29:52;;;;;;;7.63;1.90;;;8.60;99.90;;;;;;5079343;28;20021;-70
2022/02/20 12:32:25;;;;;;;4.78;1.70;;;8.50;99.90;;;;;;5079554;28;20035;-70
2022/02/20 12:34:56;;;;;;;8.60;1.52;;;8.50;99.90;;;;;;5079458;28;20016;-71
2022/02/20 12:37:26;;;;;;;10.65;2.08;;;8.50;99.90;;;;;;5061478;28;20027;-71
2022/02/20 12:40:16;;;;;;;10.15;1.60;;;8.50;99.90;;;;;;5078833;28;20029;-71
2022/02/20 12:42:56;;;;;;;7.38;1.95;;;8.50;99.90;;;;;;5077952;28;20029;-71
2022/02/20 12:45:29;;;;;;;11.55;2.13;;;8.50;99.90;;;;;;5077922;28;20024;-71
2022/02/20 12:47:58;;;;;;;3.70;1.58;;;8.60;99.90;;;;;;5077681;28;20031;-71
2022/02/20 12:50:36;;;;;;;6.47;1.75;;;8.60;99.90;;;;;;5076748;28;20048;-71
2022/02/20 12:53:04;;;;;;;5.10;1.55;;;8.60;99.90;;;;;;5078209;28;20028;-71
2022/02/20 12:55:32;;;;;;;4.50;1.55;;;8.60;99.90;;;;;;5077570;28;20044;-71
2022/02/20 12:58:10;;;;;;;7.65;1.20;;;8.60;99.90;;;;;;5059810;28;20086;-70
2022/02/20 13:00:43;;;;;;;5.70;2.03;;;8.60;99.90;;;;;;5077909;28;20024;-70
2022/02/20 13:03:13;;;;;;;8.35;1.75;;;8.60;99.90;;;;;;5060630;28;20416;-70
2022/02/20 13:05:41;;;;;;;6.63;1.80;;;8.60;99.90;;;;;;5078555;28;20032;-70
2022/02/20 13:08:17;;;;;;;3.03;1.60;;;8.60;99.90;;;;;;5060398;28;20082;-70